Andreas Maehle

Olheiro-Chefe - FC Nordsjaelland
13 Jan 2028
Quinta-feira
Processo

Personalidade

Adaptabilidade (19) Ambição (10) Controvérsia (5) Lealdade (9) Pressão (15) Profissionalismo (13) Espírito Esportivo (18) Temperamento (12)

Perfil

Estilo de Treinamento Democrático
Licença Nacional A
Determinação 12
Gestão de Pessoas 12
Motivação 4
Disciplina 8
Satisfação no Trabalho
100%
Fadiga
0%
Função Olheiro-Chefe
Salário 43.2K p/s
Contrato 14.03.2030

Desempenho

Comportamento Bom
Eficácia do Treinamento
56%
Desenvolvimento do Jogador
60%
Prevenção de Lesões
25%
Implementação Tática
65%

Eventos Recentes

Participou de uma reunião de recrutamento agora
Recomendou um alvo de transferência agora
Participou de uma reunião de recrutamento agora
Recomendou um alvo de transferência agora
Recomendou um alvo de transferência agora
Recomendou um alvo de transferência agora
Recomendou um alvo de transferência 7d atrás
Aniversário 7d atrás

Monitorando agora

136
Jogador Clube Status Habilidade Confiança Observado Última observação Último voto
Nicolás Fernández Mercau Independiente Negociando 137 / 143 79% 1 01.01.2028 Aprovar
Bitello SC Freiburg Negociando 135 / 135 68% 1 01.06.2027 Aprovar
Facundo Torres LOSC Lille Negociando 134 / 134 67% 1 01.06.2027 Aprovar
Pedro de la Vega FC Dallas Negociando 133 / 134 66% 1 01.06.2027 Aprovar
Ernie Weaver AFC Wimbledon Ativo 103 / 116 40% 2 30.05.2027 -
Tobias Slotsager Casertana Ativo 109 / 116 40% 1 30.05.2027 -
Juan Giménez Celta Ativo 109 / 131 40% 2 29.05.2027 -
Jofre Torrents Ajax Ativo 127 / 132 40% 5 29.05.2027 -
Leandro Martins Benfica Ativo 100 / 95 40% 1 29.05.2027 -
Daniel Vernattus Metalist Ativo 88 / 91 40% 3 28.05.2027 -
Samuel Lucero Defensa y Justicia Ativo 122 / 118 40% 1 28.05.2027 -
Martim Cunha Porto Ativo 111 / 108 40% 2 27.05.2027 -
Kazunari Kita Real Sociedad Ativo 90 / 101 40% 1 27.05.2027 -
Christos Mouzakitis Hull City Ativo 136 / 129 40% 4 25.05.2027 -
Daniel Kelly Oxford United Ativo 114 / 127 40% 4 25.05.2027 -
Riley Owen Trento Ativo 107 / 110 40% 4 24.05.2027 -
Pietro Reggiori Pro Patria Ativo 102 / 100 40% 1 24.05.2027 -
Finn Jeltsch VfB Stuttgart Ativo 147 / 149 40% 3 23.05.2027 -
Zaïd BafdilI Sporting CP Ativo 85 / 99 40% 2 23.05.2027 -
Matías Gómez Granada Ativo 118 / 126 40% 4 21.05.2027 -
Zane Albarus Cambridge United Ativo 89 / 91 40% 2 19.05.2027 -
Davide Bartesaghi AC Milan Ativo 133 / 128 40% 5 18.05.2027 -
Joel McGregor Swindon Town Ativo 91 / 91 40% 2 18.05.2027 -
Dylan Lawlor Cardiff City Ativo 107 / 126 40% 2 16.05.2027 -
Finley McAllister Grimsby Town Ativo 85 / 94 40% 1 14.05.2027 -
Percy Jali Free State Stars Ativo 104 / 101 40% 2 13.05.2027 -
Jan Bürger Gillingham Ativo 110 / 118 40% 3 07.05.2027 -
Hamish Douglas Grimsby Town Ativo 102 / 92 40% 1 02.05.2027 -
Sascha Britschgi Padova Ativo 109 / 126 40% 1 29.04.2027 -
Tiago Freitas Benfica Ativo 110 / 117 40% 1 28.04.2027 -
Samuele di Benedetto Bari Ativo 107 / 119 40% 1 27.04.2027 -
Josh Smith Accrington Stanley Ativo 90 / 78 40% 1 25.04.2027 -
Gonçalo Oliveira Benfica Ativo 116 / 124 40% 1 24.04.2027 -
Hlompho Lorch Ajax Cape Town Ativo 90 / 96 40% 2 23.04.2027 -
Caleb Yirenkyi Coventry City Ativo 131 / 146 40% 1 23.04.2027 -
Nahuel Ulariaga Hapoel Beer Sheva Ativo 110 / 115 40% 2 30.12.2026 -
Ruben van Bommel Ferencvaros Ativo 133 / 137 40% 3 30.12.2026 -
Ilyas Ansah Hull City Ativo 143 / 128 40% 1 30.12.2026 -
Matvey Kislyak CSKA Moscow Ativo 134 / 143 40% 1 30.12.2026 -
Tyler Fredricson Oldham Athletic Ativo 91 / 108 40% 1 30.12.2026 -
Mandla Mahlangu Ajax Cape Town Ativo 105 / 107 40% 2 28.12.2026 -
Luis Vázquez Birmingham Ativo 144 / 124 40% 2 28.12.2026 -
Rhian Brewster Oxford United Ativo 123 / 112 40% 2 28.12.2026 -
Edward Chilufya FC Midtjylland Ativo 124 / 111 40% 4 26.12.2026 -
Aune Heggebø West Bromwich Albion Ativo 133 / 122 40% 1 26.12.2026 Mais informações
Mathias Jensen FC Midtjylland Ativo 100 / 116 40% 2 25.12.2026 -
Owen Lunt Crewe Alexandra Ativo 88 / 100 40% 1 25.12.2026 -
Richard Koné Queens Park Rangers Ativo 132 / 114 40% 1 23.12.2026 -
Cameron Archer Southampton Ativo 120 / 136 40% 1 23.12.2026 -
Yousef Salech Cardiff City Ativo 118 / 120 40% 1 22.12.2026 -
Mohamed-Ali Cho Hull City Ativo 139 / 126 40% 1 22.12.2026 -
Kornelius Hansen Aalborg Ativo 108 / 106 40% 4 21.12.2026 -
Matthew Hoppe SonderjyskE Ativo 112 / 113 40% 1 21.12.2026 -
Armando Broja Burnley Ativo 134 / 125 40% 1 21.12.2026 -
Nóel Atli Anórsson Aalborg Ativo 96 / 95 40% 3 20.12.2026 -
Tamerlan Musaev CSKA Moscow Ativo 110 / 122 40% 3 18.12.2026 -
Lassina Traoré Shakhtar Ativo 129 / 118 40% 6 17.12.2026 -
Zeki Amdouni Burnley Ativo 143 / 127 40% 1 17.12.2026 -
Tom Cannon Sheffield United Ativo 116 / 138 40% 1 17.12.2026 -
Luciano Gondou CSKA Moscow Ativo 135 / 131 40% 3 15.12.2026 -
Leandro Godoy CSKA Sofia Ativo 112 / 123 40% 1 15.12.2026 -
Mees Rijks Bristol Rovers Ativo 119 / 117 40% 1 15.12.2026 -
Lorent Tolaj Plymouth Argyle Ativo 111 / 125 40% 1 13.12.2026 -
Fiete Arp OB Ativo 126 / 130 40% 5 12.12.2026 -
Manfred Ugalde Spartak Moscow Ativo 130 / 129 40% 2 09.12.2026 -
Morgan Whittaker Middlesbrough Ativo 117 / 131 40% 1 09.12.2026 -
Filip Bundgaard Brondby Ativo 108 / 123 40% 3 08.12.2026 -
Alexander Lyng Aalborg Ativo 118 / 119 40% 1 08.12.2026 -
Krisztofer Horváth Ujpest Ativo 105 / 112 40% 1 07.12.2026 -
Nathan Ordaz Metalist Ativo 114 / 114 40% 1 07.12.2026 -
Yaroslav Gladyshev Dinamo Moscow Ativo 122 / 128 40% 1 06.12.2026 -
Chico Banza Zamalek Ativo 112 / 112 40% 1 04.12.2026 -
Aidomo Emakhu Oxford United Ativo 117 / 130 40% 1 04.12.2026 -
Bénie Traoré New York City Ativo 134 / 121 40% 5 02.12.2026 -
Jens Odgaard Bologna Ativo 127 / 129 40% 1 30.11.2026 -
David Miculescu FCSB Ativo 126 / 122 40% 4 28.11.2026 -
Ramiro Ruiz Rodríguez Atlético Tucumán Ativo 114 / 117 40% 3 28.11.2026 -
Cédric Don Maccabi Haifa Ativo 108 / 120 40% 1 28.11.2026 -
Youssoufa Moukoko FC Copenhagen Ativo 118 / 132 40% 3 27.11.2026 Observar
Alexis Cuello San Lorenzo Ativo 128 / 124 40% 2 26.11.2026 -
Eren Aydın Zira Ativo 108 / 100 40% 1 26.11.2026 -
Tobias Bech AGF Ativo 137 / 121 40% 7 24.11.2026 -
Bojan Radulović Huddersfield Town Ativo 104 / 115 40% 1 21.11.2026 -
David Ankeye Zeleznicar Pancevo Ativo 113 / 117 40% 2 20.11.2026 -
Wessam Abou Ali Columbus Crew Ativo 142 / 123 40% 4 17.11.2026 -
Sead Hakšabanović Malmo FF Ativo 125 / 118 40% 4 17.11.2026 -
Michele Šego Hajduk Split Ativo 113 / 119 40% 1 15.11.2026 -
Bamba Dieng Crvena Zvezda Ativo 138 / 132 40% 2 13.11.2026 -
Everton Bala Levski Ativo 125 / 119 40% 2 13.11.2026 -
José Martínes CSKA 1948 Ativo 100 / 110 40% 1 12.11.2026 -
Keagan Tau Ajax Cape Town Ativo 90 / 106 40% 1 11.11.2026 -
Elison Makolli Aalborg Ativo 107 / 117 40% 1 11.11.2026 Mais informações
Leonardo Campana New England Revolution Ativo 126 / 127 40% 1 10.11.2026 -
Kristian Strømland Lien Djurgarden Ativo 114 / 119 40% 2 08.11.2026 -
Themba Ngcobo SuperSport United Ativo 119 / 114 40% 4 08.11.2026 -
Alexander Díaz Deportivo Riestra Ativo 117 / 114 40% 1 06.11.2026 -
Tomás González Piast Ativo 108 / 119 40% 3 05.11.2026 -
Agustín Módica Gimnasia y Esgrima Ativo 125 / 126 40% 1 05.11.2026 -
João Simões Sporting CP Ativo 133 / 135 40% 1 04.11.2026 -
Rafael Navarro St. Louis CITY SC Ativo 130 / 119 40% 5 31.10.2026 -
Louis Munteanu DC United Ativo 116 / 131 40% 2 31.10.2026 -
Tomás Chancalay Minnesota United FC Ativo 135 / 118 40% 4 30.10.2026 -
Denzel Jubitana Neftchi Ativo 123 / 120 40% 1 30.10.2026 -
Ammar Ramadan DAC Dunajska Streda Ativo 130 / 126 40% 1 29.10.2026 -
Assad Al Hamlawi Universitatea Craiova Ativo 123 / 122 40% 4 28.10.2026 -
Kévin Denkey FC Cincinnati Ativo 116 / 128 40% 1 28.10.2026 -
Dejan Joveljić Seattle Sounders Ativo 114 / 121 40% 2 24.10.2026 -
Seedy Jatta Sturm Graz Ativo 112 / 114 40% 2 23.10.2026 -
Ştefan Baiaram Universitatea Craiova Ativo 128 / 129 40% 1 23.10.2026 -
Martín Ojeda Orlando City Ativo 124 / 139 40% 2 20.10.2026 -
Jeong Sang-Bin St. Louis CITY SC Ativo 109 / 117 40% 1 18.10.2026 -
Theo Corbeanu Toronto FC Ativo 127 / 129 40% 4 16.10.2026 -
Tadeo Allende Inter Miami CF Ativo 132 / 112 40% 2 13.10.2026 -
Kein Sato FC Tokyo Ativo 139 / 135 40% 1 10.10.2026 -
Armindo Sieb Los Angeles Football Club Ativo 119 / 118 40% 1 07.10.2026 -
Max Fenger IFK Goteborg Ativo 130 / 123 40% 1 06.10.2026 -
Kevin Kelsy Portland Timbers Ativo 108 / 115 40% 1 27.09.2026 -
Daniel Karlsbakk Sarpsborg 08 Ativo 118 / 124 40% 1 24.09.2026 -
Ibrahim Aliyu Houston Dynamo Ativo 123 / 116 40% 1 23.09.2026 -
Jonás Luna Santa Clara Ativo 119 / 115 40% 1 21.09.2026 -
Evidence Makgopa Orlando Pirates Ativo 99 / 109 40% 1 21.09.2026 -
Kelvin Yeboah Minnesota United FC Ativo 128 / 133 40% 2 20.09.2026 -
Etiosa Ighodaro Kaizer Chiefs Ativo 123 / 113 40% 1 20.09.2026 -
Nəriman Axundzadə Columbus Crew Ativo 108 / 119 40% 1 20.09.2026 -
Matheus Nascimento FC Dallas Ativo 104 / 113 40% 1 18.09.2026 -
Indiana Vassilev Philadelphia Union Ativo 129 / 125 40% 1 17.09.2026 -
Alberto Soro Dinamo Bucharest Ativo 109 / 117 40% 1 16.09.2026 -
Milan Iloski Philadelphia Union Ativo 125 / 115 40% 1 11.09.2026 -
Ezekiel Kwame Alladoh Philadelphia Union Ativo 99 / 126 40% 1 11.09.2026 -
Marko Divković Brondby Ativo 123 / 113 40% 1 07.09.2026 -
Rasmus Falk OB Ativo 129 / 128 65% 1 31.08.2026 Aprovar
Furkan Demir Rapid Wien Ativo 107 / 121 40% 1 31.08.2026 -
Philippe Ndinga Philadelphia Union Ativo 112 / 128 40% 1 24.08.2026 -
Rasmus Carstensen AGF Ativo 123 / 121 40% 1 04.08.2026 -
Erik Thommy LA Galaxy Ativo 121 / 114 40% 1 01.08.2026 -
Dwight McNeil Crystal Palace Ativo 147 / 133 40% 1 01.08.2026 -